AirNav   SIMCOM
 
 692 users online  

3W5 Mears Field Airport
Concrete, Washington, USA


FAA INFORMATION EFFECTIVE 09 NOVEMBER 2017

Location

FAA Identifier: 3W5
Lat/Long: 48-31-47.4180N / 121-45-29.6960W
48-31.790300N / 121-45.494933W
48.5298383 / -121.7582489
(estimated)
Elevation: 267 ft. / 81 m (estimated)
Variation: 21E (1985)
From city: 1 mile S of CONCRETE, WA
Time zone: UTC -8 (UTC -7 during Daylight Saving Time)
Zip code: 98237

Airport Operations

Airport use: Open to the public
Activation date: 07/1938
Control tower: no
ARTCC: SEATTLE CENTER
FSS: SEATTLE FLIGHT SERVICE STATION
NOTAMs facility: SEA (NOTAM-D service available)
Attendance: UNATNDD
Wind indicator: yes
Segmented circle: yes

Airport Communications

CTAF: 122.9

Nearby radio navigation aids

NDB name  Hdg/Dist  Freq  Var  ID
SKAGIT/BAY VIEW066/26.524016EBVS -... ...- ...

Airport Services

Fuel available: 100LL
Parking: tiedowns
Airframe service: NONE
Powerplant service: NONE
Bottled oxygen: NONE
Bulk oxygen: NONE

Runway Information

Runway 7/25

Dimensions: 2609 x 60 ft. / 795 x 18 m
Surface: asphalt, in good condition
Weight bearing capacity: 
Single wheel: 12.0
RUNWAY 7  RUNWAY 25
Latitude: 48-31.792783N48-31.787817N
Longitude: 121-45.817133W121-45.171067W
Gradient: 0.1%0.1%
Traffic pattern: rightleft
Markings: basic, in good conditionbasic, in good condition
Obstructions: 41 ft. trees, 900 ft. from runway, 17:1 slope to clear44 ft. trees, 720 ft. from runway, 11:1 slope to clear
INFREQUENTLY USED ROAD AT 0'.

Helipad H1

Dimensions: 40 x 40 ft. / 12 x 12 m
Surface: concrete, in good condition
Operational restrictions: HELIPAD FOR EMERGENCY USE ONLY.
Traffic pattern: leftleft

Airport Ownership and Management from official FAA records

Ownership: Publicly-owned
Owner: CITY OF CONCRETE
PO BOX 39
CONCRETE, WA 98237
Phone 360-853-8401
Manager: CITY OF CONCRETE
PO BOX 39
CONCRETE, WA 98237
Phone 360-853-7114
JACK MEARS: AIRPORT REPRESENTATIVE.

Airport Operational Statistics

Aircraft based on the field: 46
Single engine airplanes: 44
Multi engine airplanes: 2
    
Aircraft operations: avg 97/week *
60% transient general aviation
40% local general aviation
<1% military
* for 12-month period ending 31 December 2016

Additional Remarks

ALL PATTERNS SOUTH OF ARPT.
ELK AND DEER FREQUENT BOTH RWY ENDS AND MID-FIELD.

Instrument Procedures

There are no published instrument procedures at 3W5.

Some nearby airports with instrument procedures:

KBVS - Skagit Regional Airport (27 nm W)
KAWO - Arlington Municipal Airport (27 nm SW)
KBLI - Bellingham International Airport (35 nm NW)
KNUW - Whidbey Island Naval Air Station (Ault Field) (37 nm W)
S43 - Harvey Field Airport (40 nm S)
 
Loc | Ops | Rwys | IFR | FBO | Links
Com | Nav | Svcs | Stats | Notes


 
Area around 3W5 (Mears Field Airport)
 
Road maps at: MapQuest Bing Google
 
Aerial photo
WARNING: Photo may not be current or correct
Aerial photo of 3W5 (Mears Field Airport)
Photo by John Scurlock
Photo taken 19-Oct-2014
looking east.

Do you have a better or more recent aerial photo of Mears Field Airport that you would like to share? If so, please send us your photo.

 
Sectional chart

 
Airport distance calculator
Flying to Mears Field Airport? Find the distance to fly.

From to 3W5

Sunrise and sunset
Times for 23-Nov-2017
 Local
(UTC-8)
 Zulu
(UTC)
Morning civil twilight06:5314:53
Sunrise07:2815:28
Sunset16:1900:19
Evening civil twilight16:5400:54

Current date and time
Zulu (UTC)  24-Nov-2017 02:33:33
Local (UTC-8)  23-Nov-2017 18:33:33
 
METAR
KBVS 
26nm W 
240215Z AUTO 20004KT 10SM BKN028 OVC048 09/09 A2988 RMK A01
KAWO 
27nm SW 
240156Z AUTO 15007KT 10SM -RA FEW027 BKN041 OVC047 09/08 A2988 RMK AO2 RAB41 SLP123 P0000 T00940083
KBLI 
35nm NW 
240153Z 19003KT 10SM FEW043 BKN060 OVC075 11/06 A2985 RMK AO2 SLP113 T01110056
74S 
36nm W 
SuperAWOS
240141Z AUTO 19004KT 10SM 11/08 A2986
KNUW 
37nm W 
240156Z AUTO 17005KT 10SM FEW049 SCT060 OVC085 11/07 A2990 RMK AO2 SLP125 T01060072 $
CYXX 
38nm NW 
240200Z 17008KT 10SM BKN065 OVC090 09/06 A2984 RMK SC5AC3 SLP106
KPAE 
42nm SW 
240200Z 17013KT 10SM BKN017 BKN024 OVC030 09/08 A2988 RMK AO2 T00940083
CWZA 
43nm N 
240200Z AUTO 34003KT 09/06 RMK AO1 SLP097 T00850059 51012
KORS 
46nm W 
240215Z AUTO VRB06G14KT 10SM BKN100 BKN120 11/06 A2985 RMK AO2
CWWK 
49nm NW 
240200Z AUTO 20003KT 10/07 RMK AO1 SLP105 T01040070 53015
TAF
KBLI 
35nm NW 
232359Z 2400/2424 16006KT P6SM VCSH SCT035 BKN050 FM240200 17010KT P6SM VCSH BKN035 OVC050 FM241800 16014G24KT P6SM -RA BKN030 OVC045
CYXX 
38nm NW 
231739Z 2318/2418 18010KT P6SM -RA SCT010 BKN030 OVC080 TEMPO 2318/2321 5SM -SHRA BR BKN010 OVC030 FM232100 20012G22KT P6SM FEW020 BKN050 TEMPO 2321/2410 P6SM -SHRA FM241000 18012G22KT P6SM FEW015 SCT050 BKN180 FM241500 18008KT P6SM SCT030 BKN050 OVC100 RMK NXT FCST BY 240000Z
KPAE 
42nm SW 
232359Z 2400/2424 VRB04KT P6SM VCSH SCT012 BKN025 OVC035 TEMPO 2400/2403 5SM -SHRA BR SCT005 OVC012 FM240300 15007KT P6SM VCSH SCT015 BKN025 BKN040 FM240800 16010KT P6SM BKN025 FM241800 17012KT P6SM BKN030 BKN050 FM242100 15012KT P6SM -SHRA BKN030 BKN050
NOTAMs
Click for the latest NOTAMs
NOTAMs are issued by the DoD/FAA and will open in a separate window not controlled by AirNav.

 

 
 

Would you like to see your business listed on this page?

 If your business provides an interesting product or service to pilots, flight crews, aircraft, or users of the Mears Field Airport, you should consider listing it here.  To start the listing process, click on the button below
 
Add a business
 

Other Pages about Mears Field Airport

Update a link
 
Copyright © AirNav, LLC. All rights reserved. Privacy Policy  Contact